sensor_id;sensor_type;location;lat;lon;timestamp;P1;durP1;ratioP1;P2;durP2;ratioP2
2940;SDS011;1480;51.456;6.670;2024-03-29T00:00:24;2.10;;;0.70;;
2940;SDS011;1480;51.456;6.670;2024-03-29T00:02:50;2.40;;;0.80;;
2940;SDS011;1480;51.456;6.670;2024-03-29T00:05:15;2.33;;;0.80;;
2940;SDS011;1480;51.456;6.670;2024-03-29T00:07:41;8.60;;;1.63;;
2940;SDS011;1480;51.456;6.670;2024-03-29T00:10:08;1.47;;;0.80;;
2940;SDS011;1480;51.456;6.670;2024-03-29T00:12:34;1.50;;;0.80;;
2940;SDS011;1480;51.456;6.670;2024-03-29T00:15:00;2.13;;;0.80;;
2940;SDS011;1480;51.456;6.670;2024-03-29T00:17:26;1.87;;;0.90;;
2940;SDS011;1480;51.456;6.670;2024-03-29T00:19:51;4.43;;;0.90;;
2940;SDS011;1480;51.456;6.670;2024-03-29T00:22:17;1.40;;;0.80;;
2940;SDS011;1480;51.456;6.670;2024-03-29T00:24:43;1.33;;;0.80;;
2940;SDS011;1480;51.456;6.670;2024-03-29T00:27:10;3.60;;;0.93;;
2940;SDS011;1480;51.456;6.670;2024-03-29T00:29:36;3.00;;;0.80;;
2940;SDS011;1480;51.456;6.670;2024-03-29T00:32:02;2.90;;;0.90;;
2940;SDS011;1480;51.456;6.670;2024-03-29T00:34:27;2.77;;;1.10;;
2940;SDS011;1480;51.456;6.670;2024-03-29T00:36:53;1.40;;;0.60;;
2940;SDS011;1480;51.456;6.670;2024-03-29T00:39:19;2.80;;;1.20;;
2940;SDS011;1480;51.456;6.670;2024-03-29T00:41:45;4.10;;;1.67;;
2940;SDS011;1480;51.456;6.670;2024-03-29T00:44:12;2.60;;;1.20;;
2940;SDS011;1480;51.456;6.670;2024-03-29T00:46:37;1.60;;;0.97;;
2940;SDS011;1480;51.456;6.670;2024-03-29T00:49:03;2.03;;;1.00;;
2940;SDS011;1480;51.456;6.670;2024-03-29T00:51:29;2.53;;;0.90;;
2940;SDS011;1480;51.456;6.670;2024-03-29T00:53:55;1.67;;;0.80;;
2940;SDS011;1480;51.456;6.670;2024-03-29T00:56:20;2.83;;;1.00;;
2940;SDS011;1480;51.456;6.670;2024-03-29T00:58:46;1.70;;;0.90;;
2940;SDS011;1480;51.456;6.670;2024-03-29T01:01:13;6.93;;;0.90;;
2940;SDS011;1480;51.456;6.670;2024-03-29T01:03:39;2.57;;;0.83;;
2940;SDS011;1480;51.456;6.670;2024-03-29T01:06:05;3.13;;;1.10;;
2940;SDS011;1480;51.456;6.670;2024-03-29T01:08:30;1.43;;;0.83;;
2940;SDS011;1480;51.456;6.670;2024-03-29T01:10:56;1.50;;;0.90;;
2940;SDS011;1480;51.456;6.670;2024-03-29T01:13:22;4.90;;;1.10;;
2940;SDS011;1480;51.456;6.670;2024-03-29T01:15:48;1.83;;;0.70;;
2940;SDS011;1480;51.456;6.670;2024-03-29T01:18:15;1.60;;;0.73;;
2940;SDS011;1480;51.456;6.670;2024-03-29T01:20:40;4.37;;;1.10;;
2940;SDS011;1480;51.456;6.670;2024-03-29T01:23:06;1.77;;;0.80;;
2940;SDS011;1480;51.456;6.670;2024-03-29T01:25:33;1.97;;;1.00;;
2940;SDS011;1480;51.456;6.670;2024-03-29T01:27:59;1.80;;;1.10;;
2940;SDS011;1480;51.456;6.670;2024-03-29T01:30:24;3.60;;;1.20;;
2940;SDS011;1480;51.456;6.670;2024-03-29T01:32:50;4.60;;;1.50;;
2940;SDS011;1480;51.456;6.670;2024-03-29T01:35:17;2.57;;;1.90;;
2940;SDS011;1480;51.456;6.670;2024-03-29T01:37:43;2.80;;;1.20;;
2940;SDS011;1480;51.456;6.670;2024-03-29T01:40:09;3.73;;;1.10;;
2940;SDS011;1480;51.456;6.670;2024-03-29T01:42:36;1.93;;;1.20;;
2940;SDS011;1480;51.456;6.670;2024-03-29T01:45:02;3.27;;;1.60;;
2940;SDS011;1480;51.456;6.670;2024-03-29T01:47:28;4.20;;;1.80;;
2940;SDS011;1480;51.456;6.670;2024-03-29T01:49:55;5.03;;;1.77;;
2940;SDS011;1480;51.456;6.670;2024-03-29T01:52:23;3.97;;;1.70;;
2940;SDS011;1480;51.456;6.670;2024-03-29T01:54:50;2.47;;;1.57;;
2940;SDS011;1480;51.456;6.670;2024-03-29T01:57:17;4.83;;;1.70;;
2940;SDS011;1480;51.456;6.670;2024-03-29T01:59:44;4.80;;;1.23;;
2940;SDS011;1480;51.456;6.670;2024-03-29T02:02:12;3.10;;;1.20;;
2940;SDS011;1480;51.456;6.670;2024-03-29T02:04:39;6.90;;;1.53;;
2940;SDS011;1480;51.456;6.670;2024-03-29T02:07:06;5.40;;;1.40;;
2940;SDS011;1480;51.456;6.670;2024-03-29T02:09:35;3.20;;;1.40;;
2940;SDS011;1480;51.456;6.670;2024-03-29T02:12:01;4.00;;;1.43;;
2940;SDS011;1480;51.456;6.670;2024-03-29T02:14:28;13.23;;;1.93;;
2940;SDS011;1480;51.456;6.670;2024-03-29T02:16:55;3.97;;;1.23;;
2940;SDS011;1480;51.456;6.670;2024-03-29T02:19:21;2.17;;;1.27;;
2940;SDS011;1480;51.456;6.670;2024-03-29T02:21:48;4.53;;;1.50;;
2940;SDS011;1480;51.456;6.670;2024-03-29T02:24:17;1.83;;;0.90;;
2940;SDS011;1480;51.456;6.670;2024-03-29T02:26:44;3.07;;;1.30;;
2940;SDS011;1480;51.456;6.670;2024-03-29T02:29:12;1.50;;;1.00;;
2940;SDS011;1480;51.456;6.670;2024-03-29T02:31:38;1.67;;;0.90;;
2940;SDS011;1480;51.456;6.670;2024-03-29T02:34:05;2.70;;;1.20;;
2940;SDS011;1480;51.456;6.670;2024-03-29T02:36:33;6.80;;;1.67;;
2940;SDS011;1480;51.456;6.670;2024-03-29T02:38:59;4.10;;;1.13;;
2940;SDS011;1480;51.456;6.670;2024-03-29T02:41:27;5.10;;;1.60;;
2940;SDS011;1480;51.456;6.670;2024-03-29T02:43:55;3.40;;;1.53;;
2940;SDS011;1480;51.456;6.670;2024-03-29T02:46:22;4.60;;;1.37;;
2940;SDS011;1480;51.456;6.670;2024-03-29T02:48:48;3.10;;;1.33;;
2940;SDS011;1480;51.456;6.670;2024-03-29T02:51:14;1.80;;;0.90;;
2940;SDS011;1480;51.456;6.670;2024-03-29T02:53:41;4.17;;;0.93;;
2940;SDS011;1480;51.456;6.670;2024-03-29T02:56:06;4.40;;;1.10;;
2940;SDS011;1480;51.456;6.670;2024-03-29T02:58:34;1.17;;;0.70;;
2940;SDS011;1480;51.456;6.670;2024-03-29T03:01:04;8.60;;;2.97;;
2940;SDS011;1480;51.456;6.670;2024-03-29T03:03:32;2.37;;;0.90;;
2940;SDS011;1480;51.456;6.670;2024-03-29T03:05:57;3.90;;;1.00;;
2940;SDS011;1480;51.456;6.670;2024-03-29T03:08:24;3.10;;;1.07;;
2940;SDS011;1480;51.456;6.670;2024-03-29T03:11:08;2.40;;;0.80;;
2940;SDS011;1480;51.456;6.670;2024-03-29T03:13:36;2.30;;;1.10;;
2940;SDS011;1480;51.456;6.670;2024-03-29T03:16:03;1.40;;;0.80;;
2940;SDS011;1480;51.456;6.670;2024-03-29T03:18:30;1.83;;;0.87;;
2940;SDS011;1480;51.456;6.670;2024-03-29T03:20:56;1.87;;;0.93;;
2940;SDS011;1480;51.456;6.670;2024-03-29T03:23:23;1.30;;;0.80;;
2940;SDS011;1480;51.456;6.670;2024-03-29T03:25:53;1.43;;;0.93;;
2940;SDS011;1480;51.456;6.670;2024-03-29T03:28:19;4.10;;;1.27;;
2940;SDS011;1480;51.456;6.670;2024-03-29T03:30:48;2.43;;;0.90;;
2940;SDS011;1480;51.456;6.670;2024-03-29T03:33:13;1.40;;;0.93;;
2940;SDS011;1480;51.456;6.670;2024-03-29T03:35:40;1.30;;;0.73;;
2940;SDS011;1480;51.456;6.670;2024-03-29T03:38:06;3.33;;;0.90;;
2940;SDS011;1480;51.456;6.670;2024-03-29T03:40:33;3.33;;;0.70;;
2940;SDS011;1480;51.456;6.670;2024-03-29T03:43:00;3.17;;;1.37;;
2940;SDS011;1480;51.456;6.670;2024-03-29T03:45:27;1.87;;;1.00;;
2940;SDS011;1480;51.456;6.670;2024-03-29T03:47:54;2.83;;;1.30;;
2940;SDS011;1480;51.456;6.670;2024-03-29T03:50:20;1.80;;;0.95;;
2940;SDS011;1480;51.456;6.670;2024-03-29T03:52:46;1.97;;;0.90;;
2940;SDS011;1480;51.456;6.670;2024-03-29T03:55:13;2.17;;;1.03;;
2940;SDS011;1480;51.456;6.670;2024-03-29T03:57:38;1.50;;;1.00;;
2940;SDS011;1480;51.456;6.670;2024-03-29T04:00:06;2.13;;;0.90;;
2940;SDS011;1480;51.456;6.670;2024-03-29T04:02:37;1.00;;;0.70;;
2940;SDS011;1480;51.456;6.670;2024-03-29T04:05:06;1.60;;;0.93;;
2940;SDS011;1480;51.456;6.670;2024-03-29T04:07:32;1.40;;;0.80;;
2940;SDS011;1480;51.456;6.670;2024-03-29T04:09:59;2.27;;;1.20;;
2940;SDS011;1480;51.456;6.670;2024-03-29T04:12:25;2.70;;;1.07;;
2940;SDS011;1480;51.456;6.670;2024-03-29T04:14:51;2.10;;;1.00;;
2940;SDS011;1480;51.456;6.670;2024-03-29T04:17:17;1.30;;;0.90;;
2940;SDS011;1480;51.456;6.670;2024-03-29T04:19:43;1.10;;;0.80;;
2940;SDS011;1480;51.456;6.670;2024-03-29T04:22:10;1.30;;;1.00;;
2940;SDS011;1480;51.456;6.670;2024-03-29T04:24:37;1.47;;;0.77;;
2940;SDS011;1480;51.456;6.670;2024-03-29T04:27:03;1.10;;;0.70;;
2940;SDS011;1480;51.456;6.670;2024-03-29T04:29:30;5.73;;;1.73;;
2940;SDS011;1480;51.456;6.670;2024-03-29T04:31:56;5.50;;;1.30;;
2940;SDS011;1480;51.456;6.670;2024-03-29T04:34:22;2.00;;;1.00;;
2940;SDS011;1480;51.456;6.670;2024-03-29T04:36:48;1.67;;;0.90;;
2940;SDS011;1480;51.456;6.670;2024-03-29T04:39:16;1.67;;;0.97;;
2940;SDS011;1480;51.456;6.670;2024-03-29T04:41:43;1.30;;;0.80;;
2940;SDS011;1480;51.456;6.670;2024-03-29T04:44:11;1.63;;;1.00;;
2940;SDS011;1480;51.456;6.670;2024-03-29T04:46:38;3.63;;;1.00;;
2940;SDS011;1480;51.456;6.670;2024-03-29T04:49:05;2.00;;;1.10;;
2940;SDS011;1480;51.456;6.670;2024-03-29T04:51:32;2.03;;;1.10;;
2940;SDS011;1480;51.456;6.670;2024-03-29T04:53:59;2.80;;;1.07;;
2940;SDS011;1480;51.456;6.670;2024-03-29T04:56:27;2.00;;;1.10;;
2940;SDS011;1480;51.456;6.670;2024-03-29T04:58:53;2.03;;;1.10;;
2940;SDS011;1480;51.456;6.670;2024-03-29T05:01:20;1.27;;;0.77;;
2940;SDS011;1480;51.456;6.670;2024-03-29T05:03:47;2.70;;;1.30;;
2940;SDS011;1480;51.456;6.670;2024-03-29T05:06:13;4.33;;;2.37;;
2940;SDS011;1480;51.456;6.670;2024-03-29T05:08:40;2.93;;;1.53;;
2940;SDS011;1480;51.456;6.670;2024-03-29T05:11:07;2.63;;;1.60;;
2940;SDS011;1480;51.456;6.670;2024-03-29T05:13:37;5.13;;;1.50;;
2940;SDS011;1480;51.456;6.670;2024-03-29T05:16:04;2.97;;;2.03;;
2940;SDS011;1480;51.456;6.670;2024-03-29T05:18:31;3.00;;;1.20;;
2940;SDS011;1480;51.456;6.670;2024-03-29T05:20:57;1.80;;;1.37;;
2940;SDS011;1480;51.456;6.670;2024-03-29T05:23:25;1.73;;;1.10;;
2940;SDS011;1480;51.456;6.670;2024-03-29T05:25:52;1.63;;;1.00;;
2940;SDS011;1480;51.456;6.670;2024-03-29T05:28:19;2.13;;;1.07;;
2940;SDS011;1480;51.456;6.670;2024-03-29T05:30:47;1.90;;;1.50;;
2940;SDS011;1480;51.456;6.670;2024-03-29T05:33:13;1.20;;;0.90;;
2940;SDS011;1480;51.456;6.670;2024-03-29T05:35:40;3.67;;;1.30;;
2940;SDS011;1480;51.456;6.670;2024-03-29T05:38:07;1.57;;;1.13;;
2940;SDS011;1480;51.456;6.670;2024-03-29T05:40:34;3.40;;;1.30;;
2940;SDS011;1480;51.456;6.670;2024-03-29T05:43:00;2.23;;;1.10;;
2940;SDS011;1480;51.456;6.670;2024-03-29T05:45:28;2.30;;;1.20;;
2940;SDS011;1480;51.456;6.670;2024-03-29T05:47:58;2.10;;;1.17;;
2940;SDS011;1480;51.456;6.670;2024-03-29T05:50:25;7.30;;;1.63;;
2940;SDS011;1480;51.456;6.670;2024-03-29T05:52:52;3.53;;;1.40;;
2940;SDS011;1480;51.456;6.670;2024-03-29T05:55:19;2.53;;;1.20;;
2940;SDS011;1480;51.456;6.670;2024-03-29T05:57:46;1.80;;;1.20;;
2940;SDS011;1480;51.456;6.670;2024-03-29T06:00:14;2.27;;;1.57;;
2940;SDS011;1480;51.456;6.670;2024-03-29T06:02:41;4.53;;;1.73;;
2940;SDS011;1480;51.456;6.670;2024-03-29T06:05:11;3.67;;;1.77;;
2940;SDS011;1480;51.456;6.670;2024-03-29T06:07:38;3.50;;;1.50;;
2940;SDS011;1480;51.456;6.670;2024-03-29T06:10:05;5.33;;;1.73;;
2940;SDS011;1480;51.456;6.670;2024-03-29T06:12:34;2.13;;;1.53;;
2940;SDS011;1480;51.456;6.670;2024-03-29T06:15:01;2.53;;;1.47;;
2940;SDS011;1480;51.456;6.670;2024-03-29T06:17:45;3.70;;;1.90;;
2940;SDS011;1480;51.456;6.670;2024-03-29T06:20:13;2.10;;;1.83;;
2940;SDS011;1480;51.456;6.670;2024-03-29T06:22:40;3.70;;;1.73;;
2940;SDS011;1480;51.456;6.670;2024-03-29T06:25:07;1.90;;;1.03;;
2940;SDS011;1480;51.456;6.670;2024-03-29T06:27:34;4.40;;;1.60;;
2940;SDS011;1480;51.456;6.670;2024-03-29T06:30:02;3.90;;;1.57;;
2940;SDS011;1480;51.456;6.670;2024-03-29T06:32:30;6.93;;;1.43;;
2940;SDS011;1480;51.456;6.670;2024-03-29T06:34:57;2.17;;;1.40;;
2940;SDS011;1480;51.456;6.670;2024-03-29T06:37:26;5.37;;;1.20;;
2940;SDS011;1480;51.456;6.670;2024-03-29T06:39:53;3.53;;;1.40;;
2940;SDS011;1480;51.456;6.670;2024-03-29T06:42:20;2.80;;;1.50;;
2940;SDS011;1480;51.456;6.670;2024-03-29T06:44:46;1.93;;;1.40;;
2940;SDS011;1480;51.456;6.670;2024-03-29T06:47:13;7.70;;;1.47;;
2940;SDS011;1480;51.456;6.670;2024-03-29T06:49:40;3.50;;;1.47;;
2940;SDS011;1480;51.456;6.670;2024-03-29T06:52:06;2.10;;;1.00;;
2940;SDS011;1480;51.456;6.670;2024-03-29T06:54:34;3.87;;;1.37;;
2940;SDS011;1480;51.456;6.670;2024-03-29T06:57:01;2.03;;;1.47;;
2940;SDS011;1480;51.456;6.670;2024-03-29T06:59:28;4.40;;;1.10;;
2940;SDS011;1480;51.456;6.670;2024-03-29T07:01:55;9.83;;;1.50;;
2940;SDS011;1480;51.456;6.670;2024-03-29T07:04:22;1.60;;;1.00;;
2940;SDS011;1480;51.456;6.670;2024-03-29T07:06:49;4.80;;;1.30;;
2940;SDS011;1480;51.456;6.670;2024-03-29T07:09:17;6.53;;;1.37;;
2940;SDS011;1480;51.456;6.670;2024-03-29T07:11:46;3.40;;;1.30;;
2940;SDS011;1480;51.456;6.670;2024-03-29T07:14:13;6.43;;;2.37;;
2940;SDS011;1480;51.456;6.670;2024-03-29T07:16:40;3.03;;;1.83;;
2940;SDS011;1480;51.456;6.670;2024-03-29T07:19:06;4.67;;;1.50;;
2940;SDS011;1480;51.456;6.670;2024-03-29T07:21:33;2.00;;;1.50;;
2940;SDS011;1480;51.456;6.670;2024-03-29T07:24:00;1.73;;;1.10;;
2940;SDS011;1480;51.456;6.670;2024-03-29T07:26:26;3.50;;;1.00;;
2940;SDS011;1480;51.456;6.670;2024-03-29T07:28:54;4.07;;;1.30;;
2940;SDS011;1480;51.456;6.670;2024-03-29T07:31:21;2.90;;;1.40;;
2940;SDS011;1480;51.456;6.670;2024-03-29T07:33:48;7.60;;;1.20;;
2940;SDS011;1480;51.456;6.670;2024-03-29T07:36:14;1.90;;;1.20;;
2940;SDS011;1480;51.456;6.670;2024-03-29T07:38:42;2.23;;;1.50;;
2940;SDS011;1480;51.456;6.670;2024-03-29T07:41:09;3.47;;;1.10;;
2940;SDS011;1480;51.456;6.670;2024-03-29T07:43:39;2.70;;;1.17;;
2940;SDS011;1480;51.456;6.670;2024-03-29T07:46:07;3.37;;;1.57;;
2940;SDS011;1480;51.456;6.670;2024-03-29T07:48:35;4.33;;;1.47;;
2940;SDS011;1480;51.456;6.670;2024-03-29T07:51:02;1.60;;;1.30;;
2940;SDS011;1480;51.456;6.670;2024-03-29T07:53:28;1.70;;;1.10;;
2940;SDS011;1480;51.456;6.670;2024-03-29T07:55:55;1.57;;;1.10;;
2940;SDS011;1480;51.456;6.670;2024-03-29T07:58:22;1.67;;;1.10;;
2940;SDS011;1480;51.456;6.670;2024-03-29T08:00:49;2.10;;;1.30;;
2940;SDS011;1480;51.456;6.670;2024-03-29T08:03:17;4.30;;;1.80;;
2940;SDS011;1480;51.456;6.670;2024-03-29T08:05:53;3.50;;;1.40;;
2940;SDS011;1480;51.456;6.670;2024-03-29T08:08:23;2.50;;;2.03;;
2940;SDS011;1480;51.456;6.670;2024-03-29T08:10:52;5.30;;;1.60;;
2940;SDS011;1480;51.456;6.670;2024-03-29T08:13:19;5.57;;;2.67;;
2940;SDS011;1480;51.456;6.670;2024-03-29T08:15:47;3.83;;;1.50;;
2940;SDS011;1480;51.456;6.670;2024-03-29T08:18:14;2.90;;;1.97;;
2940;SDS011;1480;51.456;6.670;2024-03-29T08:20:42;4.60;;;2.13;;
2940;SDS011;1480;51.456;6.670;2024-03-29T08:23:09;5.20;;;1.87;;
2940;SDS011;1480;51.456;6.670;2024-03-29T08:25:35;3.40;;;2.20;;
2940;SDS011;1480;51.456;6.670;2024-03-29T08:28:02;3.40;;;1.77;;
2940;SDS011;1480;51.456;6.670;2024-03-29T08:30:29;2.60;;;1.97;;
2940;SDS011;1480;51.456;6.670;2024-03-29T08:33:00;5.83;;;1.77;;
2940;SDS011;1480;51.456;6.670;2024-03-29T08:35:28;4.43;;;1.50;;
2940;SDS011;1480;51.456;6.670;2024-03-29T08:37:56;2.70;;;1.50;;
2940;SDS011;1480;51.456;6.670;2024-03-29T08:40:23;4.00;;;1.47;;
2940;SDS011;1480;51.456;6.670;2024-03-29T08:42:50;2.07;;;1.30;;
2940;SDS011;1480;51.456;6.670;2024-03-29T08:45:17;2.27;;;1.50;;
2940;SDS011;1480;51.456;6.670;2024-03-29T08:47:43;2.17;;;1.40;;
2940;SDS011;1480;51.456;6.670;2024-03-29T08:50:10;3.07;;;1.50;;
2940;SDS011;1480;51.456;6.670;2024-03-29T08:52:38;2.87;;;1.40;;
2940;SDS011;1480;51.456;6.670;2024-03-29T08:55:07;7.30;;;2.23;;
2940;SDS011;1480;51.456;6.670;2024-03-29T08:57:34;2.73;;;2.17;;
2940;SDS011;1480;51.456;6.670;2024-03-29T09:00:00;5.40;;;2.67;;
2940;SDS011;1480;51.456;6.670;2024-03-29T09:02:28;3.30;;;2.07;;
2940;SDS011;1480;51.456;6.670;2024-03-29T09:04:55;2.80;;;1.93;;
2940;SDS011;1480;51.456;6.670;2024-03-29T09:07:21;3.57;;;1.70;;
2940;SDS011;1480;51.456;6.670;2024-03-29T09:09:49;3.60;;;1.30;;
2940;SDS011;1480;51.456;6.670;2024-03-29T09:12:17;3.63;;;1.40;;
2940;SDS011;1480;51.456;6.670;2024-03-29T09:14:44;2.27;;;1.20;;
2940;SDS011;1480;51.456;6.670;2024-03-29T09:17:11;2.33;;;1.37;;
2940;SDS011;1480;51.456;6.670;2024-03-29T09:19:38;2.60;;;1.87;;
2940;SDS011;1480;51.456;6.670;2024-03-29T09:22:04;1.60;;;1.40;;
2940;SDS011;1480;51.456;6.670;2024-03-29T09:24:31;3.03;;;2.03;;
2940;SDS011;1480;51.456;6.670;2024-03-29T09:26:59;2.07;;;1.37;;
2940;SDS011;1480;51.456;6.670;2024-03-29T09:29:27;2.33;;;1.50;;
2940;SDS011;1480;51.456;6.670;2024-03-29T09:31:54;3.30;;;1.77;;
2940;SDS011;1480;51.456;6.670;2024-03-29T09:34:21;5.00;;;2.30;;
2940;SDS011;1480;51.456;6.670;2024-03-29T09:36:48;7.77;;;2.27;;
2940;SDS011;1480;51.456;6.670;2024-03-29T09:39:15;5.20;;;2.87;;
2940;SDS011;1480;51.456;6.670;2024-03-29T09:41:42;5.77;;;3.40;;
2940;SDS011;1480;51.456;6.670;2024-03-29T09:44:10;3.97;;;3.20;;
2940;SDS011;1480;51.456;6.670;2024-03-29T09:46:39;3.23;;;2.40;;
2940;SDS011;1480;51.456;6.670;2024-03-29T09:49:06;3.50;;;2.10;;
2940;SDS011;1480;51.456;6.670;2024-03-29T09:51:33;2.53;;;1.90;;
2940;SDS011;1480;51.456;6.670;2024-03-29T09:54:00;4.27;;;2.30;;
2940;SDS011;1480;51.456;6.670;2024-03-29T09:56:28;2.90;;;2.27;;
2940;SDS011;1480;51.456;6.670;2024-03-29T09:58:55;2.77;;;2.10;;
2940;SDS011;1480;51.456;6.670;2024-03-29T10:01:22;6.43;;;2.30;;
2940;SDS011;1480;51.456;6.670;2024-03-29T10:03:50;4.10;;;2.10;;
2940;SDS011;1480;51.456;6.670;2024-03-29T10:06:19;3.93;;;2.70;;
2940;SDS011;1480;51.456;6.670;2024-03-29T10:08:46;1.90;;;1.60;;
2940;SDS011;1480;51.456;6.670;2024-03-29T10:11:14;2.20;;;1.70;;
2940;SDS011;1480;51.456;6.670;2024-03-29T10:13:42;2.43;;;1.53;;
2940;SDS011;1480;51.456;6.670;2024-03-29T10:16:10;3.70;;;1.73;;
2940;SDS011;1480;51.456;6.670;2024-03-29T10:18:37;3.10;;;1.77;;
2940;SDS011;1480;51.456;6.670;2024-03-29T10:21:10;6.00;;;1.60;;
2940;SDS011;1480;51.456;6.670;2024-03-29T10:23:36;2.60;;;1.57;;
2940;SDS011;1480;51.456;6.670;2024-03-29T10:26:03;2.97;;;1.80;;
2940;SDS011;1480;51.456;6.670;2024-03-29T10:28:30;3.10;;;2.33;;
2940;SDS011;1480;51.456;6.670;2024-03-29T10:30:58;2.70;;;1.87;;
2940;SDS011;1480;51.456;6.670;2024-03-29T10:33:27;3.23;;;1.87;;
2940;SDS011;1480;51.456;6.670;2024-03-29T10:35:54;2.60;;;1.80;;
2940;SDS011;1480;51.456;6.670;2024-03-29T10:38:24;3.27;;;1.80;;
2940;SDS011;1480;51.456;6.670;2024-03-29T10:40:50;4.40;;;1.23;;
2940;SDS011;1480;51.456;6.670;2024-03-29T10:43:18;4.37;;;2.30;;
2940;SDS011;1480;51.456;6.670;2024-03-29T10:45:46;2.83;;;1.60;;
2940;SDS011;1480;51.456;6.670;2024-03-29T10:48:14;2.50;;;1.10;;
2940;SDS011;1480;51.456;6.670;2024-03-29T10:50:42;2.83;;;1.33;;
2940;SDS011;1480;51.456;6.670;2024-03-29T10:53:09;2.80;;;1.50;;
2940;SDS011;1480;51.456;6.670;2024-03-29T10:55:38;3.97;;;1.30;;
2940;SDS011;1480;51.456;6.670;2024-03-29T10:58:05;3.40;;;1.27;;
2940;SDS011;1480;51.456;6.670;2024-03-29T11:00:32;1.50;;;0.90;;
2940;SDS011;1480;51.456;6.670;2024-03-29T11:03:06;2.10;;;1.60;;
2940;SDS011;1480;51.456;6.670;2024-03-29T11:05:35;3.80;;;1.30;;
2940;SDS011;1480;51.456;6.670;2024-03-29T11:08:03;3.83;;;1.60;;
2940;SDS011;1480;51.456;6.670;2024-03-29T11:10:35;4.53;;;1.80;;
2940;SDS011;1480;51.456;6.670;2024-03-29T11:13:06;5.20;;;1.20;;
2940;SDS011;1480;51.456;6.670;2024-03-29T11:15:38;4.13;;;1.50;;
2940;SDS011;1480;51.456;6.670;2024-03-29T11:18:07;2.00;;;1.23;;
2940;SDS011;1480;51.456;6.670;2024-03-29T11:20:34;1.50;;;1.00;;
2940;SDS011;1480;51.456;6.670;2024-03-29T11:23:03;2.67;;;1.30;;
2940;SDS011;1480;51.456;6.670;2024-03-29T11:25:41;1.87;;;1.27;;
2940;SDS011;1480;51.456;6.670;2024-03-29T11:28:10;3.70;;;1.23;;
2940;SDS011;1480;51.456;6.670;2024-03-29T11:30:39;3.57;;;1.20;;
2940;SDS011;1480;51.456;6.670;2024-03-29T11:33:07;2.13;;;1.20;;
2940;SDS011;1480;51.456;6.670;2024-03-29T11:35:38;3.37;;;1.10;;
2940;SDS011;1480;51.456;6.670;2024-03-29T11:38:06;1.77;;;1.20;;
2940;SDS011;1480;51.456;6.670;2024-03-29T11:40:32;7.17;;;1.47;;
2940;SDS011;1480;51.456;6.670;2024-03-29T11:42:59;3.43;;;1.53;;
2940;SDS011;1480;51.456;6.670;2024-03-29T11:45:27;1.40;;;0.90;;
2940;SDS011;1480;51.456;6.670;2024-03-29T11:47:55;2.27;;;1.27;;
2940;SDS011;1480;51.456;6.670;2024-03-29T11:50:24;1.47;;;0.93;;
2940;SDS011;1480;51.456;6.670;2024-03-29T11:52:51;2.43;;;1.20;;
2940;SDS011;1480;51.456;6.670;2024-03-29T11:55:18;2.20;;;0.87;;
2940;SDS011;1480;51.456;6.670;2024-03-29T11:57:44;2.37;;;1.03;;
2940;SDS011;1480;51.456;6.670;2024-03-29T12:00:11;1.67;;;0.83;;
2940;SDS011;1480;51.456;6.670;2024-03-29T12:02:40;2.70;;;0.93;;
2940;SDS011;1480;51.456;6.670;2024-03-29T12:05:07;2.40;;;0.90;;
2940;SDS011;1480;51.456;6.670;2024-03-29T12:07:35;4.67;;;0.90;;
2940;SDS011;1480;51.456;6.670;2024-03-29T12:10:01;3.77;;;1.37;;
2940;SDS011;1480;51.456;6.670;2024-03-29T12:12:28;1.10;;;0.70;;
2940;SDS011;1480;51.456;6.670;2024-03-29T12:14:59;1.50;;;1.10;;
2940;SDS011;1480;51.456;6.670;2024-03-29T12:17:26;1.60;;;0.80;;
2940;SDS011;1480;51.456;6.670;2024-03-29T12:19:58;1.40;;;0.70;;
2940;SDS011;1480;51.456;6.670;2024-03-29T12:22:30;2.23;;;1.30;;
2940;SDS011;1480;51.456;6.670;2024-03-29T12:24:57;3.27;;;0.97;;
2940;SDS011;1480;51.456;6.670;2024-03-29T12:27:23;1.90;;;0.77;;
2940;SDS011;1480;51.456;6.670;2024-03-29T12:29:50;1.20;;;0.70;;
2940;SDS011;1480;51.456;6.670;2024-03-29T12:32:18;2.07;;;1.00;;
2940;SDS011;1480;51.456;6.670;2024-03-29T12:34:45;3.73;;;0.90;;
2940;SDS011;1480;51.456;6.670;2024-03-29T12:37:13;1.20;;;0.60;;
2940;SDS011;1480;51.456;6.670;2024-03-29T12:39:40;1.50;;;0.80;;
2940;SDS011;1480;51.456;6.670;2024-03-29T12:42:07;3.23;;;1.00;;
2940;SDS011;1480;51.456;6.670;2024-03-29T12:44:34;1.83;;;0.80;;
2940;SDS011;1480;51.456;6.670;2024-03-29T12:47:01;1.87;;;0.70;;
2940;SDS011;1480;51.456;6.670;2024-03-29T12:49:29;3.90;;;1.00;;
2940;SDS011;1480;51.456;6.670;2024-03-29T12:51:56;2.20;;;0.87;;
2940;SDS011;1480;51.456;6.670;2024-03-29T12:54:24;2.10;;;0.70;;
2940;SDS011;1480;51.456;6.670;2024-03-29T12:56:52;1.30;;;0.70;;
2940;SDS011;1480;51.456;6.670;2024-03-29T12:59:19;1.80;;;0.90;;
2940;SDS011;1480;51.456;6.670;2024-03-29T13:01:46;1.40;;;0.70;;
2940;SDS011;1480;51.456;6.670;2024-03-29T13:04:13;4.40;;;0.80;;
2940;SDS011;1480;51.456;6.670;2024-03-29T13:06:39;2.50;;;1.47;;
2940;SDS011;1480;51.456;6.670;2024-03-29T13:09:06;2.20;;;0.90;;
2940;SDS011;1480;51.456;6.670;2024-03-29T13:11:34;1.80;;;0.80;;
2940;SDS011;1480;51.456;6.670;2024-03-29T13:14:01;1.73;;;0.87;;
2940;SDS011;1480;51.456;6.670;2024-03-29T13:16:27;1.23;;;0.80;;
2940;SDS011;1480;51.456;6.670;2024-03-29T13:18:54;1.30;;;0.60;;
2940;SDS011;1480;51.456;6.670;2024-03-29T13:21:21;2.70;;;1.00;;
2940;SDS011;1480;51.456;6.670;2024-03-29T13:23:47;1.60;;;0.70;;
2940;SDS011;1480;51.456;6.670;2024-03-29T13:26:14;1.80;;;0.70;;
2940;SDS011;1480;51.456;6.670;2024-03-29T13:28:42;1.20;;;0.70;;
2940;SDS011;1480;51.456;6.670;2024-03-29T13:31:10;1.97;;;0.87;;
2940;SDS011;1480;51.456;6.670;2024-03-29T13:33:37;1.13;;;0.60;;
2940;SDS011;1480;51.456;6.670;2024-03-29T13:36:04;1.10;;;0.60;;
2940;SDS011;1480;51.456;6.670;2024-03-29T13:38:31;2.27;;;0.80;;
2940;SDS011;1480;51.456;6.670;2024-03-29T13:40:58;1.70;;;0.87;;
2940;SDS011;1480;51.456;6.670;2024-03-29T13:43:24;2.40;;;1.00;;
2940;SDS011;1480;51.456;6.670;2024-03-29T13:45:52;1.60;;;0.80;;
2940;SDS011;1480;51.456;6.670;2024-03-29T13:48:19;2.27;;;0.80;;
2940;SDS011;1480;51.456;6.670;2024-03-29T13:50:46;2.50;;;1.00;;
2940;SDS011;1480;51.456;6.670;2024-03-29T13:53:13;1.40;;;0.70;;
2940;SDS011;1480;51.456;6.670;2024-03-29T13:55:40;2.13;;;0.70;;
2940;SDS011;1480;51.456;6.670;2024-03-29T13:58:07;2.80;;;1.63;;
2940;SDS011;1480;51.456;6.670;2024-03-29T14:00:33;1.30;;;0.80;;
2940;SDS011;1480;51.456;6.670;2024-03-29T14:03:01;3.87;;;1.73;;
2940;SDS011;1480;51.456;6.670;2024-03-29T14:05:29;1.30;;;0.80;;
2940;SDS011;1480;51.456;6.670;2024-03-29T14:07:57;4.20;;;2.20;;
2940;SDS011;1480;51.456;6.670;2024-03-29T14:10:24;2.50;;;0.80;;
2940;SDS011;1480;51.456;6.670;2024-03-29T14:12:50;2.03;;;0.77;;
2940;SDS011;1480;51.456;6.670;2024-03-29T14:15:18;6.70;;;0.90;;
2940;SDS011;1480;51.456;6.670;2024-03-29T14:17:45;2.47;;;1.17;;
2940;SDS011;1480;51.456;6.670;2024-03-29T14:20:13;1.70;;;1.00;;
2940;SDS011;1480;51.456;6.670;2024-03-29T14:22:39;1.27;;;0.67;;
2940;SDS011;1480;51.456;6.670;2024-03-29T14:25:06;1.10;;;0.60;;
2940;SDS011;1480;51.456;6.670;2024-03-29T14:27:35;1.43;;;0.70;;
2940;SDS011;1480;51.456;6.670;2024-03-29T14:30:11;1.10;;;0.70;;
2940;SDS011;1480;51.456;6.670;2024-03-29T14:32:39;1.20;;;0.60;;
2940;SDS011;1480;51.456;6.670;2024-03-29T14:35:07;1.30;;;0.70;;
2940;SDS011;1480;51.456;6.670;2024-03-29T14:37:37;1.17;;;0.80;;
2940;SDS011;1480;51.456;6.670;2024-03-29T14:40:04;1.40;;;0.80;;
2940;SDS011;1480;51.456;6.670;2024-03-29T14:42:31;2.20;;;0.77;;
2940;SDS011;1480;51.456;6.670;2024-03-29T14:44:58;1.60;;;0.70;;
2940;SDS011;1480;51.456;6.670;2024-03-29T14:47:25;1.73;;;0.73;;
2940;SDS011;1480;51.456;6.670;2024-03-29T14:49:51;1.10;;;0.60;;
2940;SDS011;1480;51.456;6.670;2024-03-29T14:52:18;1.20;;;0.70;;
2940;SDS011;1480;51.456;6.670;2024-03-29T14:54:46;1.20;;;0.70;;
2940;SDS011;1480;51.456;6.670;2024-03-29T14:57:13;1.20;;;0.60;;
2940;SDS011;1480;51.456;6.670;2024-03-29T14:59:39;2.77;;;1.10;;
2940;SDS011;1480;51.456;6.670;2024-03-29T15:02:05;1.40;;;0.70;;
2940;SDS011;1480;51.456;6.670;2024-03-29T15:04:32;2.10;;;0.70;;
2940;SDS011;1480;51.456;6.670;2024-03-29T15:06:59;1.50;;;0.90;;
2940;SDS011;1480;51.456;6.670;2024-03-29T15:09:26;1.73;;;0.80;;
2940;SDS011;1480;51.456;6.670;2024-03-29T15:11:54;1.73;;;0.80;;
2940;SDS011;1480;51.456;6.670;2024-03-29T15:14:20;1.77;;;0.83;;